KLFK/LFK METAR and TAF weather

Enter ICAO airport designator
Station Type Date Time Source
KLFK METAR 2023/02/05 13:53 UTC NOAA

KLFK 051353Z AUTO 15005KT 1/4SM FG VV002 08/07 A3025 RMK AO2 SLP242 T00780072


Station Type Date Time Source
KLFK Decoded METAR 2023/02/05 13:53 UTC NOAA

LUFKIN ANGELINA COUNTY AIRPORT , TX, United States (KLFK) 31-14N 94-45W 88M
Feb 05, 2023 - 08:53 AM EST / 2023.02.05 1353 UTC
Wind: from the SSE (150 degrees) at 6 MPH (5 KT):0
Visibility: 1/4 mile(s):0
Sky conditions: obscured
Weather: fog
Temperature: 46.0 F (7.8 C)
Dew Point: 45.0 F (7.2 C)
Relative Humidity: 95%
Pressure (altimeter): 30.25 in. Hg (1024 hPa)
ob: KLFK 051353Z AUTO 15005KT 1/4SM FG VV002 08/07 A3025 RMK AO2 SLP242 T00780072
cycle: 14

Station Type Date Time Source
KLFK TAF 2023/02/05 12:22 UTC NOAA

TAF KLFK 051120Z 0512/0612 13003KT 1 1/2SM BR BKN002
FM051500 21007KT P6SM SCT025 SCT250
FM060000 16004KT P6SM SKC
FM060600 15004KT P6SM SCT250

Example: see airport list